Terminal Aerodrome Forecast
Issued by NWS Pocatello, ID

Home | Current Version | Previous Version | Text Only | Print | Product List | Glossary On
Versions: 1 2 3 4 5 6 7 8 9 10 11 12 13 14 15 16 17 18 19 20 21 22
000
FTUS45 KPIH 211400 AAD
TAFBYI
TAF AMD
KBYI 211427Z 2114/2212 26020G30KT P6SM -SHRA SCT015 BKN035 OVC050
     FM211900 27020G30KT P6SM SCT040
     FM212300 25011KT P6SM FEW090=

USA.gov is the U.S. government's official web portal to all federal, state and local government web resources and services.